createdAt,value
2022-12-23T00:00:02.653Z,0.93
2022-12-23T00:00:34.473Z,1.00
2022-12-23T00:01:08.666Z,1.35
2022-12-23T00:01:40.657Z,0.93
2022-12-23T00:02:12.593Z,0.90
2022-12-23T00:02:46.208Z,1.00
2022-12-23T00:03:18.240Z,0.70
2022-12-23T00:03:50.719Z,1.33
2022-12-23T00:04:23.629Z,0.98
2022-12-23T00:04:55.514Z,0.98
2022-12-23T00:05:31.366Z,1.00
2022-12-23T00:06:11.973Z,0.60
2022-12-23T00:06:43.750Z,1.27
2022-12-23T00:07:15.534Z,1.23
2022-12-23T00:07:48.314Z,0.80
2022-12-23T00:08:20.466Z,1.05
2022-12-23T00:08:57.934Z,0.60
2022-12-23T00:09:30.871Z,0.80
2022-12-23T00:10:03.175Z,0.70
2022-12-23T00:10:37.644Z,0.80
2022-12-23T00:11:14.314Z,2.08
2022-12-23T00:12:13.644Z,1.10
2022-12-23T00:13:03.776Z,0.80
2022-12-23T00:13:54.274Z,1.05
2022-12-23T00:14:59.185Z,1.20
2022-12-23T00:15:31.965Z,0.95
2022-12-23T00:16:05.663Z,1.00
2022-12-23T00:16:38.478Z,0.80
2022-12-23T00:17:22.234Z,1.35
2022-12-23T00:17:54.861Z,1.15
2022-12-23T00:18:26.985Z,1.10
2022-12-23T00:18:59.743Z,0.77
2022-12-23T00:19:31.601Z,0.85
2022-12-23T00:20:05.233Z,1.40
2022-12-23T00:20:38.017Z,1.30
2022-12-23T00:21:13.179Z,1.92
2022-12-23T00:21:44.971Z,1.27
2022-12-23T00:22:16.781Z,1.20
2022-12-23T00:23:07.891Z,1.10
2022-12-23T00:23:41.805Z,1.15
2022-12-23T00:24:14.569Z,1.30
2022-12-23T00:24:46.396Z,0.70
2022-12-23T00:25:18.498Z,1.30
2022-12-23T00:25:51.253Z,1.20
2022-12-23T00:26:25.182Z,1.27
2022-12-23T00:26:57.934Z,1.02
2022-12-23T00:27:32.945Z,1.40
2022-12-23T00:28:11.552Z,1.25
2022-12-23T00:28:44.693Z,0.98
2022-12-23T00:29:16.476Z,1.17
2022-12-23T00:29:48.252Z,1.10
2022-12-23T00:30:21.123Z,1.45
2022-12-23T00:30:54.431Z,1.17
2022-12-23T00:31:27.331Z,1.20
2022-12-23T00:31:59.277Z,1.17
2022-12-23T00:32:31.086Z,1.15
2022-12-23T00:33:02.976Z,0.90
2022-12-23T00:33:37.895Z,1.35
2022-12-23T00:34:11.949Z,0.90
2022-12-23T00:34:43.867Z,1.30
2022-12-23T00:35:16.708Z,1.23
2022-12-23T00:35:49.084Z,0.90
2022-12-23T00:36:24.177Z,0.85
2022-12-23T00:36:57.077Z,0.93
2022-12-23T00:37:30.405Z,0.95
2022-12-23T00:38:02.225Z,0.90
2022-12-23T00:38:52.504Z,0.85
2022-12-23T00:40:02.595Z,0.73
2022-12-23T00:40:56.658Z,3.85
2022-12-23T00:41:47.310Z,5.07
2022-12-23T00:42:37.399Z,6.20
2022-12-23T00:43:10.151Z,3.28
2022-12-23T00:43:41.958Z,4.15
2022-12-23T00:44:13.776Z,2.53
2022-12-23T00:44:46.602Z,2.60
2022-12-23T00:45:18.653Z,3.92
2022-12-23T00:45:50.452Z,3.80
2022-12-23T00:46:23.323Z,4.13
2022-12-23T00:46:55.227Z,3.50
2022-12-23T00:47:45.567Z,3.35
2022-12-23T00:48:35.880Z,2.50
2022-12-23T00:49:26.354Z,4.15
2022-12-23T00:49:58.171Z,4.82
2022-12-23T00:50:31.951Z,2.72
2022-12-23T00:51:04.131Z,3.78
2022-12-23T00:51:37.299Z,2.35
2022-12-23T00:52:13.278Z,1.88
2022-12-23T00:52:45.027Z,3.92
2022-12-23T00:53:16.817Z,2.75
2022-12-23T00:53:49.585Z,2.95
2022-12-23T00:54:21.421Z,3.20
2022-12-23T00:54:53.236Z,5.90
2022-12-23T00:55:26.485Z,2.85
2022-12-23T00:55:58.283Z,2.20
2022-12-23T00:56:30.355Z,1.50
2022-12-23T00:57:03.493Z,3.17
2022-12-23T00:57:35.279Z,1.17
2022-12-23T00:58:07.101Z,2.63
2022-12-23T00:58:39.811Z,4.43
2022-12-23T00:59:11.688Z,4.15
2022-12-23T00:59:43.473Z,2.50
2022-12-23T01:00:16.696Z,2.97
2022-12-23T01:01:07.380Z,3.03
2022-12-23T01:01:57.918Z,2.88
2022-12-23T01:02:48.389Z,2.40
2022-12-23T01:03:38.774Z,2.38
2022-12-23T01:04:30.908Z,1.63
2022-12-23T01:05:26.816Z,0.90
2022-12-23T01:06:00.300Z,1.00
2022-12-23T01:06:32.259Z,1.80
2022-12-23T01:07:07.410Z,2.35
2022-12-23T01:07:40.161Z,1.55
2022-12-23T01:08:12.564Z,2.05
2022-12-23T01:08:44.693Z,2.45
2022-12-23T01:09:17.756Z,1.50
2022-12-23T01:09:49.702Z,1.45
2022-12-23T01:10:21.517Z,1.20
2022-12-23T01:10:54.525Z,1.55
2022-12-23T01:11:26.335Z,1.55
2022-12-23T01:11:58.149Z,1.88
2022-12-23T01:12:30.895Z,3.08
2022-12-23T01:13:02.782Z,2.83
2022-12-23T01:13:35.003Z,1.77
2022-12-23T01:14:09.188Z,1.55
2022-12-23T01:14:41.231Z,1.30
2022-12-23T01:15:13.034Z,2.85
2022-12-23T01:15:46.130Z,3.35
2022-12-23T01:16:18.114Z,1.90
2022-12-23T01:16:50.214Z,1.50
2022-12-23T01:17:23.043Z,1.60
2022-12-23T01:17:54.835Z,1.20
2022-12-23T01:18:26.651Z,1.67
2022-12-23T01:19:00.073Z,1.70
2022-12-23T01:19:31.894Z,1.10
2022-12-23T01:20:04.366Z,0.85
2022-12-23T01:20:38.693Z,0.77
2022-12-23T01:21:10.573Z,1.05
2022-12-23T01:21:42.394Z,1.00
2022-12-23T01:22:16.530Z,1.48
2022-12-23T01:22:48.344Z,1.63
2022-12-23T01:23:20.155Z,2.60
2022-12-23T01:23:52.978Z,1.45
2022-12-23T01:24:27.835Z,2.70
2022-12-23T01:25:00.572Z,4.25
2022-12-23T01:25:32.834Z,2.55
2022-12-23T01:26:07.580Z,1.50
2022-12-23T01:26:40.357Z,3.00
2022-12-23T01:27:12.137Z,2.83
2022-12-23T01:27:44.008Z,1.60
2022-12-23T01:28:15.836Z,1.92
2022-12-23T01:28:48.621Z,1.65
2022-12-23T01:29:20.407Z,1.50
2022-12-23T01:29:52.193Z,1.50
2022-12-23T01:30:25.352Z,1.02
2022-12-23T01:30:57.913Z,2.45
2022-12-23T01:31:30.340Z,1.35
2022-12-23T01:32:03.223Z,1.90
2022-12-23T01:32:35.048Z,1.00
2022-12-23T01:33:06.891Z,1.08
2022-12-23T01:33:38.752Z,1.23
2022-12-23T01:34:11.615Z,1.65
2022-12-23T01:34:43.434Z,2.25
2022-12-23T01:35:15.424Z,2.15
2022-12-23T01:35:48.741Z,2.50
2022-12-23T01:36:20.813Z,2.00
2022-12-23T01:36:52.597Z,1.30
2022-12-23T01:37:26.733Z,1.13
2022-12-23T01:37:58.576Z,0.95
2022-12-23T01:38:30.428Z,1.05
2022-12-23T01:39:03.223Z,1.77
2022-12-23T01:39:35.071Z,1.10
2022-12-23T01:40:08.615Z,1.48
2022-12-23T01:40:43.738Z,1.58
2022-12-23T01:41:37.646Z,1.65
2022-12-23T01:42:30.946Z,2.42
2022-12-23T01:43:02.797Z,2.80
2022-12-23T01:43:47.712Z,2.00
2022-12-23T01:44:53.037Z,1.45
2022-12-23T01:45:29.024Z,2.20
2022-12-23T01:46:01.819Z,1.70
2022-12-23T01:46:33.684Z,2.70
2022-12-23T01:47:09.794Z,1.50
2022-12-23T01:47:46.793Z,1.52
2022-12-23T01:48:22.708Z,1.10
2022-12-23T01:48:55.541Z,1.08
2022-12-23T01:49:27.366Z,1.10
2022-12-23T01:50:04.991Z,0.93
2022-12-23T01:50:39.895Z,0.95
2022-12-23T01:51:16.207Z,1.30
2022-12-23T01:51:49.063Z,1.10
2022-12-23T01:52:21.581Z,1.25
2022-12-23T01:53:06.944Z,1.10
2022-12-23T01:53:44.542Z,1.10
2022-12-23T01:54:16.333Z,0.95
2022-12-23T01:54:48.321Z,1.30
2022-12-23T01:55:24.727Z,1.85
2022-12-23T01:56:01.497Z,2.10
2022-12-23T01:56:36.606Z,0.82
2022-12-23T01:57:09.461Z,1.70
2022-12-23T01:57:42.787Z,0.82
2022-12-23T01:58:18.061Z,1.00
2022-12-23T01:58:53.813Z,0.90
2022-12-23T01:59:41.026Z,0.80
2022-12-23T02:00:32.200Z,0.70
2022-12-23T02:01:24.112Z,0.70
2022-12-23T02:02:14.816Z,0.93
2022-12-23T02:03:06.649Z,1.10
2022-12-23T02:03:44.707Z,0.93
2022-12-23T02:04:21.512Z,1.15
2022-12-23T02:04:54.330Z,1.25
2022-12-23T02:05:26.674Z,0.85
2022-12-23T02:06:19.936Z,1.02
2022-12-23T02:07:10.468Z,1.30
2022-12-23T02:08:01.218Z,1.20
2022-12-23T02:08:53.013Z,0.80
2022-12-23T02:09:27.774Z,0.65
2022-12-23T02:09:59.656Z,1.70
2022-12-23T02:10:43.371Z,1.60
2022-12-23T02:11:41.017Z,1.13
2022-12-23T02:12:33.033Z,0.98
2022-12-23T02:13:12.760Z,1.10
2022-12-23T02:14:06.684Z,0.70
2022-12-23T02:15:15.010Z,0.55
2022-12-23T02:16:10.321Z,0.90
2022-12-23T02:16:50.140Z,1.63
2022-12-23T02:17:27.021Z,0.93
2022-12-23T02:18:22.073Z,5.25
2022-12-23T02:19:04.275Z,1.33
2022-12-23T02:20:04.223Z,1.98
2022-12-23T02:21:08.656Z,2.70
2022-12-23T02:22:10.389Z,1.10
2022-12-23T02:23:00.769Z,1.77
2022-12-23T02:24:13.852Z,1.35
2022-12-23T02:25:26.586Z,0.77
2022-12-23T02:26:16.065Z,0.52
2022-12-23T02:27:05.291Z,0.50
2022-12-23T02:27:56.363Z,0.70
2022-12-23T02:28:46.107Z,1.25
2022-12-23T02:29:48.009Z,0.88
2022-12-23T02:30:41.547Z,0.88
2022-12-23T02:31:19.654Z,0.93
2022-12-23T02:31:57.977Z,0.90
2022-12-23T02:32:39.950Z,0.88
2022-12-23T02:33:30.554Z,1.00
2022-12-23T02:34:13.087Z,1.00
2022-12-23T02:34:52.402Z,1.08
2022-12-23T02:35:30.811Z,0.70
2022-12-23T02:36:12.882Z,0.85
2022-12-23T02:36:53.724Z,1.00
2022-12-23T02:37:35.829Z,0.50
2022-12-23T02:38:14.317Z,0.73
2022-12-23T02:38:53.105Z,0.80
2022-12-23T02:39:36.412Z,0.77
2022-12-23T02:40:13.101Z,0.65
2022-12-23T02:40:56.992Z,1.02
2022-12-23T02:41:37.817Z,0.68
2022-12-23T02:42:15.327Z,1.95
2022-12-23T02:42:53.050Z,0.50
2022-12-23T02:43:32.520Z,0.70
2022-12-23T02:44:11.992Z,0.70
2022-12-23T02:44:48.803Z,1.27
2022-12-23T02:45:31.363Z,0.73
2022-12-23T02:46:09.871Z,0.82
2022-12-23T02:46:47.619Z,0.70
2022-12-23T02:47:22.819Z,1.00
2022-12-23T02:47:57.968Z,0.95
2022-12-23T02:48:35.791Z,1.00
2022-12-23T02:49:11.924Z,0.52
2022-12-23T02:49:49.925Z,0.70
2022-12-23T02:50:30.374Z,0.73
2022-12-23T02:51:03.834Z,0.73
2022-12-23T02:51:42.888Z,0.50
2022-12-23T02:52:18.298Z,0.57
2022-12-23T02:52:52.275Z,0.73
2022-12-23T02:53:27.992Z,0.52
2022-12-23T02:54:04.810Z,0.50
2022-12-23T02:54:41.651Z,0.45
2022-12-23T02:55:18.931Z,0.60
2022-12-23T02:55:54.181Z,0.85
2022-12-23T02:56:28.190Z,0.60
2022-12-23T02:57:03.463Z,1.00
2022-12-23T02:57:39.401Z,0.50
2022-12-23T02:58:14.862Z,0.60
2022-12-23T02:58:52.561Z,0.70
2022-12-23T02:59:29.031Z,0.50
2022-12-23T03:00:03.284Z,0.55
2022-12-23T03:00:39.450Z,0.40
2022-12-23T03:01:14.077Z,0.60
2022-12-23T03:01:47.342Z,0.98
2022-12-23T03:02:19.976Z,0.52
2022-12-23T03:02:53.052Z,0.70
2022-12-23T03:03:26.123Z,0.90
2022-12-23T03:03:58.285Z,0.70
2022-12-23T03:04:31.174Z,0.65
2022-12-23T03:05:03.558Z,0.65
2022-12-23T03:05:40.416Z,0.63
2022-12-23T03:06:20.717Z,0.60
2022-12-23T03:06:54.337Z,0.50
2022-12-23T03:07:31.335Z,0.40
2022-12-23T03:08:07.509Z,0.52
2022-12-23T03:08:43.915Z,0.40
2022-12-23T03:09:22.801Z,0.55
2022-12-23T03:10:04.401Z,0.40
2022-12-23T03:10:46.113Z,0.38
2022-12-23T03:11:19.101Z,0.40
2022-12-23T03:11:59.502Z,0.43
2022-12-23T03:12:43.109Z,0.50
2022-12-23T03:13:24.352Z,0.70
2022-12-23T03:14:35.187Z,0.40
2022-12-23T03:15:27.246Z,0.50
2022-12-23T03:16:12.016Z,0.30
2022-12-23T03:16:53.515Z,0.38
2022-12-23T03:17:35.017Z,0.50
2022-12-23T03:18:12.627Z,0.50
2022-12-23T03:18:54.891Z,0.40
2022-12-23T03:19:33.621Z,0.50
2022-12-23T03:20:15.572Z,0.50
2022-12-23T03:20:53.262Z,0.73
2022-12-23T03:21:31.421Z,0.50
2022-12-23T03:22:11.496Z,0.40
2022-12-23T03:22:54.649Z,0.30
2022-12-23T03:23:29.923Z,0.30
2022-12-23T03:24:12.719Z,0.32
2022-12-23T03:24:53.253Z,0.40
2022-12-23T03:25:31.543Z,0.50
2022-12-23T03:26:10.807Z,0.50
2022-12-23T03:26:50.279Z,0.50
2022-12-23T03:27:28.324Z,0.40
2022-12-23T03:28:04.332Z,0.30
2022-12-23T03:28:40.882Z,0.50
2022-12-23T03:29:17.027Z,0.40
2022-12-23T03:29:55.754Z,0.50
2022-12-23T03:30:30.436Z,1.15
2022-12-23T03:31:07.567Z,0.80
2022-12-23T03:31:41.167Z,0.50
2022-12-23T03:32:17.174Z,0.55
2022-12-23T03:32:53.542Z,0.40
2022-12-23T03:33:29.780Z,0.40
2022-12-23T03:34:06.736Z,0.50
2022-12-23T03:34:42.103Z,0.85
2022-12-23T03:35:17.254Z,0.47
2022-12-23T03:35:53.256Z,0.40
2022-12-23T03:36:29.367Z,0.38
2022-12-23T03:37:05.151Z,0.47
2022-12-23T03:37:42.105Z,0.40
2022-12-23T03:38:17.127Z,0.50
2022-12-23T03:38:51.149Z,0.38
2022-12-23T03:39:29.966Z,0.45
2022-12-23T03:40:06.964Z,0.30
2022-12-23T03:40:43.220Z,0.60
2022-12-23T03:41:20.965Z,0.40
2022-12-23T03:41:57.803Z,0.40
2022-12-23T03:42:35.597Z,0.52
2022-12-23T03:43:11.460Z,0.50
2022-12-23T03:43:50.894Z,0.60
2022-12-23T03:44:29.186Z,0.55
2022-12-23T03:46:09.808Z,0.50
2022-12-23T03:46:46.679Z,0.40
2022-12-23T03:47:23.522Z,0.60
2022-12-23T03:48:00.377Z,0.40
2022-12-23T03:48:35.716Z,0.40
2022-12-23T03:49:11.605Z,0.40
2022-12-23T03:49:48.807Z,0.60
2022-12-23T03:50:23.984Z,0.30
2022-12-23T03:50:59.134Z,0.70
2022-12-23T03:51:38.690Z,0.40
2022-12-23T03:52:20.756Z,0.50
2022-12-23T03:52:58.095Z,0.52
2022-12-23T03:53:34.394Z,0.50
2022-12-23T03:54:13.078Z,0.35
2022-12-23T03:54:48.658Z,0.80
2022-12-23T03:55:25.969Z,0.70
2022-12-23T03:56:02.719Z,0.45
2022-12-23T03:56:37.933Z,0.40
2022-12-23T03:57:12.505Z,0.40
2022-12-23T03:57:48.080Z,0.73
2022-12-23T03:58:28.222Z,0.57
2022-12-23T03:59:04.441Z,0.60
2022-12-23T03:59:39.038Z,0.50
2022-12-23T04:00:12.076Z,0.47
2022-12-23T04:00:48.990Z,0.88
2022-12-23T04:01:29.500Z,0.50
2022-12-23T04:02:08.158Z,0.38
2022-12-23T04:02:47.584Z,0.30
2022-12-23T04:03:26.894Z,0.40
2022-12-23T04:04:03.576Z,0.60
2022-12-23T04:04:51.801Z,0.50
2022-12-23T04:05:26.418Z,0.50
2022-12-23T04:06:01.940Z,0.45
2022-12-23T04:06:39.051Z,0.50
2022-12-23T04:07:15.549Z,0.50
2022-12-23T04:07:52.136Z,0.47
2022-12-23T04:08:29.423Z,0.40
2022-12-23T04:09:03.017Z,0.40
2022-12-23T04:09:35.631Z,0.55
2022-12-23T04:10:10.483Z,0.55
2022-12-23T04:10:42.577Z,0.60
2022-12-23T04:11:14.847Z,0.40
2022-12-23T04:11:48.720Z,0.60
2022-12-23T04:12:22.948Z,0.30
2022-12-23T04:12:55.129Z,0.38
2022-12-23T04:13:28.476Z,0.40
2022-12-23T04:14:00.288Z,0.60
2022-12-23T04:14:35.088Z,0.40
2022-12-23T04:15:12.879Z,0.40
2022-12-23T04:15:46.349Z,0.40
2022-12-23T04:16:18.787Z,0.60
2022-12-23T04:16:54.669Z,0.45
2022-12-23T04:17:27.536Z,0.57
2022-12-23T04:17:59.651Z,0.50
2022-12-23T04:18:31.542Z,0.40
2022-12-23T04:19:04.325Z,0.40
2022-12-23T04:19:36.152Z,0.50
2022-12-23T04:20:08.714Z,0.40
2022-12-23T04:20:41.495Z,0.40
2022-12-23T04:21:13.282Z,0.50
2022-12-23T04:21:45.130Z,0.40
2022-12-23T04:22:16.973Z,0.65
2022-12-23T04:22:49.869Z,0.52
2022-12-23T04:23:21.787Z,0.38
2022-12-23T04:23:53.576Z,0.88
2022-12-23T04:24:26.400Z,0.52
2022-12-23T04:24:58.191Z,0.60
2022-12-23T04:25:30.043Z,0.50
2022-12-23T04:26:02.847Z,0.55
2022-12-23T04:26:34.735Z,0.50
2022-12-23T04:27:07.297Z,0.57
2022-12-23T04:27:39.169Z,0.30
2022-12-23T04:28:11.989Z,0.47
2022-12-23T04:28:43.760Z,0.50
2022-12-23T04:29:15.679Z,0.50
2022-12-23T04:29:48.419Z,0.50
2022-12-23T04:30:20.418Z,0.52
2022-12-23T04:30:52.276Z,0.65
2022-12-23T04:31:25.254Z,0.60
2022-12-23T04:31:58.626Z,0.50
2022-12-23T04:32:30.475Z,0.38
2022-12-23T04:33:03.071Z,0.30
2022-12-23T04:33:35.914Z,0.50
2022-12-23T04:34:07.678Z,0.45
2022-12-23T04:34:39.531Z,0.50
2022-12-23T04:35:13.424Z,0.40
2022-12-23T04:35:45.286Z,0.50
2022-12-23T04:36:18.139Z,0.40
2022-12-23T04:36:49.984Z,0.50
2022-12-23T04:37:21.861Z,0.40
2022-12-23T04:37:54.644Z,0.30
2022-12-23T04:38:26.445Z,0.40
2022-12-23T04:38:58.287Z,0.50
2022-12-23T04:39:31.103Z,0.30
2022-12-23T04:40:03.485Z,0.32
2022-12-23T04:40:35.338Z,0.38
2022-12-23T04:41:07.295Z,0.40
2022-12-23T04:41:40.075Z,0.40
2022-12-23T04:42:12.799Z,0.50
2022-12-23T04:42:45.607Z,0.40
2022-12-23T04:43:17.472Z,0.30
2022-12-23T04:43:52.962Z,0.43
2022-12-23T04:44:26.400Z,0.65
2022-12-23T04:44:58.577Z,0.40
2022-12-23T04:45:30.418Z,0.40
2022-12-23T04:46:03.209Z,0.30
2022-12-23T04:46:35.078Z,0.52
2022-12-23T04:47:08.350Z,0.55
2022-12-23T04:47:41.337Z,0.35
2022-12-23T04:48:13.146Z,0.50
2022-12-23T04:48:44.995Z,0.70
2022-12-23T04:49:17.761Z,0.43
2022-12-23T04:49:49.555Z,0.45
2022-12-23T04:50:22.511Z,0.30
2022-12-23T04:50:54.295Z,0.30
2022-12-23T04:51:26.463Z,0.55
2022-12-23T04:51:58.535Z,0.47
2022-12-23T04:52:31.346Z,0.40
2022-12-23T04:53:03.223Z,0.50
2022-12-23T04:53:36.350Z,0.52
2022-12-23T04:54:09.376Z,0.40
2022-12-23T04:54:46.017Z,0.40
2022-12-23T04:55:18.517Z,0.40
2022-12-23T04:55:51.761Z,0.65
2022-12-23T04:56:23.559Z,0.40
2022-12-23T04:56:55.406Z,0.38
2022-12-23T04:57:28.185Z,0.40
2022-12-23T04:58:00.050Z,0.30
2022-12-23T04:58:31.895Z,0.30
2022-12-23T04:59:04.698Z,0.57
2022-12-23T04:59:36.527Z,0.35
2022-12-23T05:00:09.595Z,0.30
2022-12-23T05:00:42.423Z,0.63
2022-12-23T05:01:14.397Z,0.40
2022-12-23T05:01:46.617Z,0.50
2022-12-23T05:02:21.027Z,0.38
2022-12-23T05:02:53.065Z,0.47
2022-12-23T05:03:25.028Z,0.40
2022-12-23T05:03:57.977Z,0.30
2022-12-23T05:04:30.094Z,0.40
2022-12-23T05:05:01.939Z,0.30
2022-12-23T05:05:34.741Z,0.40
2022-12-23T05:06:07.615Z,0.40
2022-12-23T05:06:39.594Z,0.35
2022-12-23T05:07:12.402Z,0.45
2022-12-23T05:07:44.281Z,0.80
2022-12-23T05:08:16.086Z,0.38
2022-12-23T05:08:48.863Z,0.82
2022-12-23T05:09:20.779Z,0.38
2022-12-23T05:09:52.620Z,0.32
2022-12-23T05:10:25.405Z,0.30
2022-12-23T05:10:57.397Z,0.30
2022-12-23T05:11:29.333Z,0.40
2022-12-23T05:12:02.083Z,0.50
2022-12-23T05:12:33.857Z,0.30
2022-12-23T05:13:05.676Z,0.40
2022-12-23T05:13:38.467Z,0.50
2022-12-23T05:14:10.357Z,0.40
2022-12-23T05:14:42.207Z,0.40
2022-12-23T05:15:15.049Z,0.47
2022-12-23T05:15:49.062Z,0.30
2022-12-23T05:16:20.973Z,0.47
2022-12-23T05:16:53.805Z,0.40
2022-12-23T05:17:27.015Z,0.45
2022-12-23T05:17:58.819Z,0.38
2022-12-23T05:18:31.621Z,0.40
2022-12-23T05:19:03.532Z,0.50
2022-12-23T05:19:35.491Z,0.60
2022-12-23T05:20:09.807Z,0.70
2022-12-23T05:20:41.603Z,0.40
2022-12-23T05:21:13.459Z,0.40
2022-12-23T05:21:46.266Z,0.30
2022-12-23T05:22:18.237Z,0.40
2022-12-23T05:22:50.054Z,0.40
2022-12-23T05:23:22.897Z,0.30
2022-12-23T05:23:55.310Z,0.45
2022-12-23T05:24:27.102Z,0.50
2022-12-23T05:24:59.868Z,0.30
2022-12-23T05:25:32.909Z,0.40
2022-12-23T05:26:04.939Z,0.30
2022-12-23T05:26:37.776Z,0.50
2022-12-23T05:27:09.598Z,0.35
2022-12-23T05:27:41.391Z,0.30
2022-12-23T05:28:14.156Z,0.40
2022-12-23T05:28:46.041Z,0.57
2022-12-23T05:29:17.855Z,0.50
2022-12-23T05:29:50.629Z,0.30
2022-12-23T05:30:22.456Z,0.40
2022-12-23T05:30:58.998Z,0.47
2022-12-23T05:31:31.843Z,0.30
2022-12-23T05:32:04.059Z,0.30
2022-12-23T05:32:37.358Z,0.30
2022-12-23T05:33:10.282Z,0.40
2022-12-23T05:33:42.144Z,0.50
2022-12-23T05:34:14.088Z,0.75
2022-12-23T05:34:46.928Z,0.40
2022-12-23T05:35:18.744Z,0.40
2022-12-23T05:35:50.550Z,0.35
2022-12-23T05:36:23.313Z,0.40
2022-12-23T05:36:55.130Z,0.50
2022-12-23T05:37:27.005Z,0.55
2022-12-23T05:37:59.899Z,0.40
2022-12-23T05:38:31.738Z,0.30
2022-12-23T05:39:03.687Z,0.40
2022-12-23T05:39:36.486Z,0.40
2022-12-23T05:40:10.504Z,0.40
2022-12-23T05:40:42.622Z,0.40
2022-12-23T05:41:16.802Z,0.40
2022-12-23T05:41:48.668Z,0.40
2022-12-23T05:42:20.479Z,0.50
2022-12-23T05:42:53.230Z,0.52
2022-12-23T05:43:25.278Z,0.45
2022-12-23T05:43:57.121Z,0.50
2022-12-23T05:44:29.910Z,0.68
2022-12-23T05:45:01.852Z,0.30
2022-12-23T05:45:35.568Z,0.30
2022-12-23T05:46:08.416Z,0.30
2022-12-23T05:46:40.287Z,0.38
2022-12-23T05:47:12.348Z,0.35
2022-12-23T05:47:46.459Z,0.32
2022-12-23T05:48:18.501Z,0.60
2022-12-23T05:48:50.296Z,0.40
2022-12-23T05:49:25.249Z,0.40
2022-12-23T05:49:57.048Z,0.40
2022-12-23T05:50:28.886Z,0.30
2022-12-23T05:51:01.715Z,0.32
2022-12-23T05:51:33.482Z,0.30
2022-12-23T05:52:05.562Z,0.38
2022-12-23T05:52:38.419Z,0.60
2022-12-23T05:53:10.493Z,0.43
2022-12-23T05:53:42.291Z,0.30
2022-12-23T05:54:15.263Z,0.30
2022-12-23T05:54:47.056Z,0.30
2022-12-23T05:55:18.849Z,0.38
2022-12-23T05:55:51.904Z,0.40
2022-12-23T05:56:23.750Z,0.30
2022-12-23T05:56:55.567Z,0.32
2022-12-23T05:57:28.299Z,0.40
2022-12-23T05:58:00.108Z,0.50
2022-12-23T05:58:32.199Z,0.43
2022-12-23T05:59:04.974Z,0.55
2022-12-23T05:59:36.804Z,0.50
2022-12-23T06:00:10.619Z,0.30
2022-12-23T06:00:43.645Z,0.40
2022-12-23T06:01:15.475Z,0.60
2022-12-23T06:01:47.392Z,0.50
2022-12-23T06:02:21.923Z,0.40
2022-12-23T06:02:56.500Z,0.30
2022-12-23T06:03:28.640Z,0.63
2022-12-23T06:04:00.694Z,0.40
2022-12-23T06:04:33.552Z,0.63
2022-12-23T06:05:06.360Z,0.50
2022-12-23T06:05:39.212Z,0.52
2022-12-23T06:06:12.025Z,1.50
2022-12-23T06:06:43.845Z,2.35
2022-12-23T06:07:15.644Z,2.30
2022-12-23T06:07:48.419Z,0.90
2022-12-23T06:08:20.751Z,0.90
2022-12-23T06:08:59.183Z,0.73
2022-12-23T06:09:32.514Z,0.73
2022-12-23T06:10:05.470Z,0.50
2022-12-23T06:10:37.377Z,0.50
2022-12-23T06:11:10.159Z,0.60
2022-12-23T06:11:41.962Z,0.47
2022-12-23T06:12:13.762Z,0.40
2022-12-23T06:12:46.517Z,0.82
2022-12-23T06:13:18.303Z,0.45
2022-12-23T06:13:50.198Z,0.50
2022-12-23T06:14:28.527Z,0.40
2022-12-23T06:15:01.133Z,0.38
2022-12-23T06:15:33.911Z,0.30
2022-12-23T06:16:06.632Z,0.40
2022-12-23T06:16:38.572Z,0.40
2022-12-23T06:17:11.379Z,0.50
2022-12-23T06:17:43.192Z,0.43
2022-12-23T06:18:16.455Z,0.30
2022-12-23T06:18:49.303Z,0.55
2022-12-23T06:19:21.115Z,0.43
2022-12-23T06:19:53.012Z,0.40
2022-12-23T06:20:25.778Z,0.47
2022-12-23T06:20:57.635Z,0.40
2022-12-23T06:21:29.669Z,0.40
2022-12-23T06:22:02.467Z,0.30
2022-12-23T06:22:34.409Z,0.40
2022-12-23T06:23:06.242Z,0.40
2022-12-23T06:23:39.097Z,0.50
2022-12-23T06:24:11.399Z,0.45
2022-12-23T06:24:43.426Z,0.38
2022-12-23T06:25:16.487Z,0.30
2022-12-23T06:25:48.312Z,0.50
2022-12-23T06:26:20.167Z,0.40
2022-12-23T06:26:56.977Z,0.40
2022-12-23T06:27:29.358Z,0.40
2022-12-23T06:28:01.183Z,0.52
2022-12-23T06:28:34.008Z,0.45
2022-12-23T06:29:06.140Z,0.40
2022-12-23T06:29:38.004Z,0.40
2022-12-23T06:30:11.513Z,0.30
2022-12-23T06:30:43.355Z,0.38
2022-12-23T06:31:15.378Z,0.30
2022-12-23T06:31:48.262Z,0.52
2022-12-23T06:32:20.125Z,0.40
2022-12-23T06:32:51.911Z,0.40
2022-12-23T06:33:26.421Z,0.38
2022-12-23T06:33:58.209Z,0.60
2022-12-23T06:34:31.300Z,0.43
2022-12-23T06:35:03.166Z,0.50
2022-12-23T06:35:35.944Z,0.57
2022-12-23T06:36:09.030Z,0.50
2022-12-23T06:36:40.863Z,0.50
2022-12-23T06:37:13.653Z,0.50
2022-12-23T06:37:45.452Z,0.47
2022-12-23T06:38:17.351Z,0.30
2022-12-23T06:38:50.086Z,0.50
2022-12-23T06:39:21.981Z,0.40
2022-12-23T06:39:53.809Z,0.40
2022-12-23T06:40:28.874Z,0.50
2022-12-23T06:41:00.844Z,0.47
2022-12-23T06:41:32.677Z,0.52
2022-12-23T06:42:05.562Z,0.30
2022-12-23T06:42:37.338Z,0.40
2022-12-23T06:43:11.222Z,0.50
2022-12-23T06:43:43.998Z,0.65
2022-12-23T06:44:15.838Z,0.55
2022-12-23T06:44:47.661Z,0.60
2022-12-23T06:45:20.498Z,0.40
2022-12-23T06:45:52.346Z,0.30
2022-12-23T06:46:24.215Z,0.50
2022-12-23T06:46:56.986Z,0.50
2022-12-23T06:47:28.913Z,0.30
2022-12-23T06:48:00.690Z,0.40
2022-12-23T06:48:34.854Z,0.40
2022-12-23T06:49:12.836Z,0.50
2022-12-23T06:49:46.373Z,0.38
2022-12-23T06:50:18.244Z,0.40
2022-12-23T06:50:50.979Z,0.65
2022-12-23T06:51:23.965Z,0.45
2022-12-23T06:51:55.780Z,0.35
2022-12-23T06:52:27.617Z,0.30
2022-12-23T06:53:00.409Z,0.30
2022-12-23T06:53:32.284Z,0.40
2022-12-23T06:54:04.170Z,0.50
2022-12-23T06:54:36.984Z,0.57
2022-12-23T06:55:09.271Z,0.32
2022-12-23T06:55:41.162Z,0.50
2022-12-23T06:56:13.954Z,0.43
2022-12-23T06:56:45.752Z,0.40
2022-12-23T06:57:17.552Z,0.50
2022-12-23T06:57:50.351Z,0.60
2022-12-23T06:58:22.115Z,0.60
2022-12-23T06:58:53.971Z,0.50
2022-12-23T06:59:26.890Z,0.45
2022-12-23T06:59:58.718Z,0.50
2022-12-23T07:00:31.507Z,0.50
2022-12-23T07:01:03.505Z,0.40
2022-12-23T07:01:35.569Z,0.35
2022-12-23T07:02:10.562Z,0.68
2022-12-23T07:02:42.523Z,0.40
2022-12-23T07:03:14.588Z,0.40
2022-12-23T07:03:50.879Z,0.40
2022-12-23T07:04:22.689Z,0.73
2022-12-23T07:04:54.571Z,0.45
2022-12-23T07:05:33.296Z,0.40
2022-12-23T07:06:08.470Z,0.47
2022-12-23T07:06:41.271Z,0.68
2022-12-23T07:07:13.205Z,0.50
2022-12-23T07:07:44.959Z,0.40
2022-12-23T07:08:18.253Z,0.40
2022-12-23T07:08:50.798Z,0.90
2022-12-23T07:09:22.616Z,0.60
2022-12-23T07:09:55.377Z,0.47
2022-12-23T07:10:27.223Z,0.50
2022-12-23T07:11:00.442Z,0.30
2022-12-23T07:11:33.227Z,0.40
2022-12-23T07:12:05.626Z,0.40
2022-12-23T07:12:37.848Z,0.50
2022-12-23T07:13:10.999Z,0.40
2022-12-23T07:13:42.817Z,0.60
2022-12-23T07:14:15.579Z,0.40
2022-12-23T07:14:47.363Z,0.60
2022-12-23T07:15:19.148Z,0.50
2022-12-23T07:15:51.908Z,0.40
2022-12-23T07:16:23.965Z,0.60
2022-12-23T07:16:55.850Z,0.40
2022-12-23T07:17:28.941Z,0.52
2022-12-23T07:18:00.770Z,0.50
2022-12-23T07:18:32.638Z,0.45
2022-12-23T07:19:06.803Z,1.00
2022-12-23T07:19:38.667Z,0.60
2022-12-23T07:20:13.624Z,0.40
2022-12-23T07:20:46.422Z,0.38
2022-12-23T07:21:26.690Z,0.50
2022-12-23T07:22:00.673Z,0.40
2022-12-23T07:22:33.437Z,0.40
2022-12-23T07:23:05.241Z,0.50
2022-12-23T07:23:37.106Z,0.40
2022-12-23T07:24:10.144Z,0.50
2022-12-23T07:24:42.000Z,0.60
2022-12-23T07:25:13.934Z,0.43
2022-12-23T07:25:46.699Z,0.47
2022-12-23T07:26:18.510Z,0.40
2022-12-23T07:26:52.175Z,0.47
2022-12-23T07:27:24.956Z,0.30
2022-12-23T07:27:57.046Z,0.40
2022-12-23T07:28:29.801Z,0.40
2022-12-23T07:29:02.090Z,0.35
2022-12-23T07:29:34.859Z,0.75
2022-12-23T07:30:08.083Z,0.43
2022-12-23T07:30:39.870Z,0.40
2022-12-23T07:31:12.776Z,0.40
2022-12-23T07:31:44.687Z,0.40
2022-12-23T07:32:16.556Z,0.40
2022-12-23T07:32:49.382Z,0.70
2022-12-23T07:33:21.184Z,0.65
2022-12-23T07:33:52.984Z,1.05
2022-12-23T07:34:27.065Z,0.50
2022-12-23T07:34:58.876Z,1.23
2022-12-23T07:35:30.688Z,0.60
2022-12-23T07:36:03.472Z,0.52
2022-12-23T07:36:35.398Z,0.30
2022-12-23T07:37:08.228Z,0.40
2022-12-23T07:37:40.051Z,0.50
2022-12-23T07:38:11.865Z,0.30
2022-12-23T07:38:44.642Z,0.73
2022-12-23T07:39:16.456Z,0.40
2022-12-23T07:39:48.240Z,0.50
2022-12-23T07:40:20.987Z,0.50
2022-12-23T07:40:52.871Z,0.30
2022-12-23T07:41:24.800Z,0.70
2022-12-23T07:42:25.036Z,0.45
2022-12-23T07:42:49.882Z,0.40
2022-12-23T07:43:22.704Z,0.40
2022-12-23T07:43:54.628Z,0.30
2022-12-23T07:44:26.414Z,0.43
2022-12-23T07:44:59.183Z,0.30
2022-12-23T07:45:31.007Z,0.65
2022-12-23T07:46:06.744Z,0.40
2022-12-23T07:46:39.995Z,0.50
2022-12-23T07:47:11.828Z,0.57
2022-12-23T07:47:43.607Z,0.30
2022-12-23T07:48:16.724Z,0.40
2022-12-23T07:48:48.592Z,0.50
2022-12-23T07:49:20.422Z,0.40